Etusivu
METAR-TAF:

METAR-TAF

Lentoasemat :

Heathrow’n lentoasema

Lontoo-Heathrow, Englanti

Leveyspiiri: 51-29N, Pituuspiiri: 000-27W, korkeus merenpinnasta: 24 m

Tämänhetkinen sää

Tämä raportti tehtiin 23 minuuttia sitten, kello 03.50 UTC
Tuuli 8 kn idästä
Lämpötila 2°C
Kosteus 87%
Ilmanpaine 1017 hPa
Näkyvyys: 6000 m

METAR: EGLL 130350Z AUTO 09008KT 6000 NCD 02/00 Q1017 NOSIG

Aika: 04:13 (04:13 UTC)

Sääennuste

Tämä raportti tehtiin 5 tuntia ja 22 minuuttia sitten, kello 22.51 UTC
Ennuste voimassa 13. päivästä klo 00 UTC - 14. päivään klo 06 UTC
Tuuli 8 kn idästä/kaakosta
Näkyvyys 10 km tai enemmän
Hajanaisia pilviä 3000 ft:n korkeudessa
Todennäköisyys 30%
13. päivästä klo 00 UTC - 13. päivään klo 09 UTC
Näkyvyys: 8000 m
Todennäköisyys 40%
13. päivästä klo 20 UTC - 14. päivään klo 06 UTC
Näkyvyys: 7000 m

TAF: EGLL 122251Z 1300/1406 12008KT 9999 SCT030 PROB30 1300/1309 8000 PROB40 1320/1406 7000

Säähavainnot ja -ennusteet yli 4000 lentoasemalta (METAR- ja TAF-raportit).

Käytössä olevat sääasemat on merkitty karttaan keltaisilla ja punaisilla pisteillä.

Aseta hiiri pisteen päälle nähdäksesi sääaseman nimen.

Klikkaa sitten nähdäksesi säähavainnot ja -ennusteet.

Kartan vaihtaminen: klikkaa mustalla rastilla varustettuja vihreitä pisteitä, niin voit zoomata sisään; viivalla varustettua vihreää pistettä, niin voit zoomata ulos tai vihreitä nuolia, niin pääset viereisille kartoille.


METAR-TAF: